createdAt,value
2023-01-19T00:02:57.315Z,98854.81
2023-01-19T00:06:05.165Z,98856.56
2023-01-19T00:09:07.884Z,98856.50
2023-01-19T00:12:10.756Z,98853.88
2023-01-19T00:15:13.370Z,98865.31
2023-01-19T00:18:16.201Z,98876.84
2023-01-19T00:21:19.461Z,98883.91
2023-01-19T00:24:22.310Z,98892.66
2023-01-19T00:27:25.052Z,98904.13
2023-01-19T00:30:29.624Z,98908.38
2023-01-19T00:33:34.588Z,98901.19
2023-01-19T00:36:37.453Z,98899.56
2023-01-19T00:39:40.392Z,98912.13
2023-01-19T00:42:44.991Z,98915.75
2023-01-19T00:45:47.620Z,98923.91
2023-01-19T00:48:50.391Z,98931.97
2023-01-19T00:51:52.921Z,98938.25
2023-01-19T00:54:55.853Z,98932.13
2023-01-19T00:57:58.569Z,98935.69
2023-01-19T01:01:03.809Z,98933.13
2023-01-19T01:04:06.915Z,98935.81
2023-01-19T01:07:09.729Z,98947.34
2023-01-19T01:10:22.017Z,98945.56
2023-01-19T01:13:27.346Z,98943.88
2023-01-19T01:16:30.476Z,98940.31
2023-01-19T01:19:33.323Z,98942.06
2023-01-19T01:22:35.855Z,98950.97
2023-01-19T01:25:38.775Z,98943.91
2023-01-19T01:28:41.375Z,98939.44
2023-01-19T01:31:44.344Z,98948.38
2023-01-19T01:34:47.130Z,98944.81
2023-01-19T01:37:49.947Z,98951.03
2023-01-19T01:40:52.637Z,98951.94
2023-01-19T01:43:58.590Z,98969.69
2023-01-19T01:47:01.379Z,98986.53
2023-01-19T01:50:11.930Z,98990.97
2023-01-19T01:53:15.278Z,98991.84
2023-01-19T01:56:21.145Z,99008.72
2023-01-19T01:59:28.392Z,99008.69
2023-01-19T02:02:51.207Z,99004.25
2023-01-19T02:05:57.724Z,99005.13
2023-01-19T02:09:25.880Z,99004.31
2023-01-19T02:12:47.720Z,99021.12
2023-01-19T02:15:56.032Z,99010.50
2023-01-19T02:18:58.891Z,99008.72
2023-01-19T02:22:13.160Z,99000.72
2023-01-19T02:25:17.110Z,98999.88
2023-01-19T02:28:20.089Z,99006.97
2023-01-19T02:31:23.455Z,98996.31
2023-01-19T02:34:26.515Z,99006.09
2023-01-19T02:37:31.213Z,99004.31
2023-01-19T02:40:33.981Z,99010.53
2023-01-19T02:43:37.577Z,99019.41
2023-01-19T02:46:40.763Z,99026.47
2023-01-19T02:49:43.617Z,99026.47
2023-01-19T02:52:46.183Z,99025.59
2023-01-19T02:55:58.089Z,99018.50
2023-01-19T02:59:03.688Z,99001.69
2023-01-19T03:02:26.425Z,99008.78
2023-01-19T03:05:47.764Z,99007.00
2023-01-19T03:09:01.892Z,99014.06
2023-01-19T03:12:10.169Z,99005.22
2023-01-19T03:15:23.753Z,99020.28
2023-01-19T03:18:28.287Z,99040.66
2023-01-19T03:21:34.317Z,99042.44
2023-01-19T03:24:40.243Z,99045.09
2023-01-19T03:27:43.728Z,99027.38
2023-01-19T03:31:07.003Z,99029.16
2023-01-19T03:34:12.058Z,99016.75
2023-01-19T03:37:16.058Z,99032.69
2023-01-19T03:40:20.194Z,99043.31
2023-01-19T03:43:23.665Z,99065.47
2023-01-19T03:46:27.342Z,99069.00
2023-01-19T03:49:33.677Z,99067.22
2023-01-19T03:52:36.607Z,99073.41
2023-01-19T03:55:41.925Z,99064.56
2023-01-19T03:58:45.371Z,99061.03
2023-01-19T04:01:48.863Z,99054.81
2023-01-19T04:04:51.837Z,99039.75
2023-01-19T04:07:54.755Z,99034.47
2023-01-19T04:10:58.528Z,99015.88
2023-01-19T04:14:01.734Z,99019.41
2023-01-19T04:17:04.655Z,99025.59
2023-01-19T04:20:07.982Z,99027.38
2023-01-19T04:23:11.202Z,99030.94
2023-01-19T04:26:13.939Z,99036.25
2023-01-19T04:29:17.347Z,99037.12
2023-01-19T04:32:19.861Z,99041.56
2023-01-19T04:35:23.758Z,99050.41
2023-01-19T04:38:26.787Z,99062.81
2023-01-19T04:41:31.097Z,99054.84
2023-01-19T04:44:33.680Z,99056.59
2023-01-19T04:47:37.013Z,99054.84
2023-01-19T04:50:39.655Z,99063.69
2023-01-19T04:53:42.560Z,99053.06
2023-01-19T04:56:45.184Z,99057.50
2023-01-19T04:59:48.088Z,99048.63
2023-01-19T05:02:51.202Z,99044.22
2023-01-19T05:05:54.271Z,99058.38
2023-01-19T05:08:56.807Z,99060.16
2023-01-19T05:12:00.033Z,99058.38
2023-01-19T05:15:02.586Z,99052.19
2023-01-19T05:18:05.491Z,99058.41
2023-01-19T05:21:08.194Z,99057.50
2023-01-19T05:24:11.119Z,99071.69
2023-01-19T05:27:13.635Z,99076.09
2023-01-19T05:30:16.918Z,99073.44
2023-01-19T05:33:19.401Z,99089.38
2023-01-19T05:36:22.273Z,99086.72
2023-01-19T05:39:26.126Z,99083.22
2023-01-19T05:42:30.347Z,99093.84
2023-01-19T05:45:34.706Z,99077.03
2023-01-19T05:48:38.045Z,99080.56
2023-01-19T05:51:45.385Z,99083.22
2023-01-19T05:54:48.947Z,99077.91
2023-01-19T05:57:51.515Z,99075.25
2023-01-19T06:00:54.854Z,99050.47
2023-01-19T06:03:57.707Z,99049.59
2023-01-19T06:07:00.232Z,99023.91
2023-01-19T06:10:03.055Z,99030.12
2023-01-19T06:13:06.067Z,99054.00
2023-01-19T06:16:09.957Z,99079.66
2023-01-19T06:19:12.816Z,99050.47
2023-01-19T06:22:16.845Z,99059.31
2023-01-19T06:25:19.594Z,99082.31
2023-01-19T06:28:22.761Z,99074.34
2023-01-19T06:31:25.383Z,99097.34
2023-01-19T06:34:29.165Z,99105.31
2023-01-19T06:37:31.844Z,99088.50
2023-01-19T06:40:34.647Z,99054.88
2023-01-19T06:43:37.352Z,99078.78
2023-01-19T06:46:40.361Z,99100.91
2023-01-19T06:49:43.322Z,99130.06
2023-01-19T06:52:46.307Z,99115.03
2023-01-19T06:55:48.989Z,99102.66
2023-01-19T06:58:53.369Z,99068.12
2023-01-19T07:01:59.205Z,99082.31
2023-01-19T07:05:02.466Z,99087.63
2023-01-19T07:08:05.453Z,99097.38
2023-01-19T07:11:25.674Z,99102.69
2023-01-19T07:14:34.270Z,99089.41
2023-01-19T07:17:37.620Z,99096.50
2023-01-19T07:20:40.663Z,99077.91
2023-01-19T07:23:43.847Z,99092.94
2023-01-19T07:26:46.462Z,99086.75
2023-01-19T07:29:49.491Z,99114.19
2023-01-19T07:32:52.137Z,99101.81
2023-01-19T07:35:55.136Z,99098.25
2023-01-19T07:38:58.123Z,99098.25
2023-01-19T07:42:01.476Z,99118.63
2023-01-19T07:45:07.821Z,99141.63
2023-01-19T07:48:10.718Z,99136.28
2023-01-19T07:51:18.003Z,99126.56
2023-01-19T07:54:21.065Z,99155.75
2023-01-19T07:57:24.319Z,99168.16
2023-01-19T08:00:28.055Z,99167.25
2023-01-19T08:03:31.316Z,99155.75
2023-01-19T08:06:35.613Z,99151.34
2023-01-19T08:09:38.622Z,99156.66
2023-01-19T08:12:42.061Z,99161.09
2023-01-19T08:15:47.837Z,99169.03
2023-01-19T08:18:50.893Z,99169.03
2023-01-19T08:21:54.308Z,99160.19
2023-01-19T08:24:56.951Z,99144.28
2023-01-19T08:28:01.043Z,99165.53
2023-01-19T08:31:18.710Z,99161.09
2023-01-19T08:34:23.395Z,99150.50
2023-01-19T08:37:26.039Z,99147.84
2023-01-19T08:40:30.132Z,99169.94
2023-01-19T08:43:34.654Z,99169.97
2023-01-19T08:46:38.350Z,99155.81
2023-01-19T08:49:41.393Z,99169.06
2023-01-19T08:52:44.303Z,99167.31
2023-01-19T08:55:47.421Z,99147.84
2023-01-19T08:59:03.459Z,99149.59
2023-01-19T09:02:12.605Z,99161.13
2023-01-19T09:05:17.463Z,99154.91
2023-01-19T09:08:20.368Z,99179.72
2023-01-19T09:11:23.408Z,99172.63
2023-01-19T09:14:26.312Z,99177.06
2023-01-19T09:17:29.834Z,99187.69
2023-01-19T09:20:34.721Z,99189.47
2023-01-19T09:23:38.289Z,99196.56
2023-01-19T09:26:41.063Z,99191.25
2023-01-19T09:29:52.291Z,99173.50
2023-01-19T09:32:55.012Z,99190.34
2023-01-19T09:35:58.041Z,99185.94
2023-01-19T09:39:00.757Z,99188.59
2023-01-19T09:42:17.325Z,99187.66
2023-01-19T09:45:29.616Z,99173.50
2023-01-19T09:48:48.925Z,99182.34
2023-01-19T09:51:51.920Z,99164.63
2023-01-19T09:54:57.675Z,99161.97
2023-01-19T09:58:00.516Z,99171.72
2023-01-19T10:01:21.786Z,99154.87
2023-01-19T10:04:41.383Z,99167.28
2023-01-19T10:08:06.193Z,99169.06
2023-01-19T10:11:22.962Z,99169.94
2023-01-19T10:14:55.854Z,99178.78
2023-01-19T10:18:17.256Z,99162.84
2023-01-19T10:21:32.247Z,99173.47
2023-01-19T10:24:42.551Z,99163.72
2023-01-19T10:27:46.475Z,99154.87
2023-01-19T10:30:50.519Z,99170.81
2023-01-19T10:33:54.277Z,99161.06
2023-01-19T10:37:04.478Z,99168.16
2023-01-19T10:40:10.076Z,99170.81
2023-01-19T10:43:36.141Z,99178.78
2023-01-19T10:46:44.831Z,99169.91
2023-01-19T10:49:48.779Z,99175.25
2023-01-19T10:52:53.414Z,99164.59
2023-01-19T10:56:21.776Z,99189.44
2023-01-19T10:59:52.562Z,99162.84
2023-01-19T11:02:55.756Z,99198.28
2023-01-19T11:06:13.917Z,99182.34
2023-01-19T11:09:21.402Z,99196.50
2023-01-19T11:12:24.410Z,99192.06
2023-01-19T11:15:42.392Z,99186.75
2023-01-19T11:18:47.227Z,99199.16
2023-01-19T11:21:50.373Z,99206.25
2023-01-19T11:24:53.625Z,99187.63
2023-01-19T11:27:56.750Z,99199.16
2023-01-19T11:31:01.497Z,99176.13
2023-01-19T11:34:14.808Z,99170.81
2023-01-19T11:37:20.111Z,99186.75
2023-01-19T11:40:23.087Z,99196.50
2023-01-19T11:43:39.709Z,99198.28
2023-01-19T11:46:55.096Z,99204.47
2023-01-19T11:50:11.843Z,99197.38
2023-01-19T11:53:19.332Z,99205.38
2023-01-19T11:56:29.025Z,99207.16
2023-01-19T11:59:32.087Z,99212.47
2023-01-19T12:02:44.005Z,99217.78
2023-01-19T12:05:49.753Z,99224.00
2023-01-19T12:09:00.759Z,99221.34
2023-01-19T12:12:08.127Z,99196.53
2023-01-19T12:15:32.238Z,99211.59
2023-01-19T12:18:52.554Z,99219.56
2023-01-19T12:21:56.140Z,99217.78
2023-01-19T12:25:08.800Z,99223.13
2023-01-19T12:28:14.220Z,99219.56
2023-01-19T12:31:19.780Z,99224.00
2023-01-19T12:34:25.964Z,99219.56
2023-01-19T12:37:28.973Z,99219.56
2023-01-19T12:40:35.309Z,99227.53
2023-01-19T12:43:38.342Z,99231.09
2023-01-19T12:46:50.305Z,99246.16
2023-01-19T12:49:56.885Z,99251.47
2023-01-19T12:53:02.790Z,99250.59
2023-01-19T12:56:08.899Z,99258.56
2023-01-19T12:59:25.994Z,99260.34
2023-01-19T13:02:28.818Z,99277.16
2023-01-19T13:05:32.836Z,99267.41
2023-01-19T13:08:57.084Z,99270.97
2023-01-19T13:12:13.785Z,99262.97
2023-01-19T13:15:36.119Z,99270.09
2023-01-19T13:18:41.235Z,99278.06
2023-01-19T13:21:47.510Z,99281.59
2023-01-19T13:25:13.503Z,99290.47
2023-01-19T13:28:18.392Z,99275.41
2023-01-19T13:31:22.333Z,99291.34
2023-01-19T13:34:26.565Z,99317.03
2023-01-19T13:40:47.626Z,99317.94
2023-01-19T13:43:59.105Z,99328.56
2023-01-19T13:47:04.953Z,99325.03
2023-01-19T13:50:19.563Z,99320.59
2023-01-19T13:53:24.266Z,99336.53
2023-01-19T13:56:28.575Z,99336.53
2023-01-19T13:59:31.953Z,99340.97
2023-01-19T14:02:34.679Z,99341.84
2023-01-19T14:05:39.587Z,99348.06
2023-01-19T14:08:42.415Z,99356.03
2023-01-19T14:11:48.268Z,99353.37
2023-01-19T14:14:50.816Z,99355.16
2023-01-19T14:18:33.546Z,99364.88
2023-01-19T14:21:44.544Z,99366.66
2023-01-19T14:24:47.493Z,99369.31
2023-01-19T14:27:50.123Z,99379.09
2023-01-19T14:31:00.473Z,99370.19
2023-01-19T14:34:03.389Z,99370.19
2023-01-19T14:37:17.633Z,99366.66
2023-01-19T14:40:24.599Z,99373.75
2023-01-19T14:43:29.856Z,99366.63
2023-01-19T14:46:32.519Z,99377.28
2023-01-19T14:49:38.610Z,99372.81
2023-01-19T14:52:41.982Z,99357.72
2023-01-19T14:55:48.535Z,99376.31
2023-01-19T14:58:51.213Z,99372.78
2023-01-19T15:01:54.333Z,99366.59
2023-01-19T15:04:57.931Z,99370.06
2023-01-19T15:08:02.242Z,99373.63
2023-01-19T15:11:21.384Z,99372.75
2023-01-19T15:14:24.276Z,99381.63
2023-01-19T15:17:26.853Z,99357.66
2023-01-19T15:20:30.073Z,99381.56
2023-01-19T15:23:33.176Z,99386.88
2023-01-19T15:26:37.827Z,99367.38
2023-01-19T15:29:40.505Z,99399.25
2023-01-19T15:32:44.354Z,99390.41
2023-01-19T15:35:50.082Z,99371.81
2023-01-19T15:38:53.320Z,99390.41
2023-01-19T15:41:55.932Z,99407.22
2023-01-19T15:44:59.101Z,99405.47
2023-01-19T15:48:06.526Z,99408.13
2023-01-19T15:51:14.396Z,99435.53
2023-01-19T15:54:17.033Z,99453.19
2023-01-19T15:57:20.157Z,99448.81
2023-01-19T16:00:23.669Z,99475.31
2023-01-19T16:03:26.571Z,99469.16
2023-01-19T16:06:30.366Z,99468.28
2023-01-19T16:09:40.438Z,99468.25
2023-01-19T16:12:47.781Z,99441.59
2023-01-19T16:15:50.694Z,99483.22
2023-01-19T16:18:53.477Z,99485.06
2023-01-19T16:21:56.549Z,99493.88
2023-01-19T16:24:59.251Z,99500.91
2023-01-19T16:28:02.231Z,99523.88
2023-01-19T16:31:04.915Z,99545.09
2023-01-19T16:34:08.502Z,99546.78
2023-01-19T16:37:11.913Z,99554.75
2023-01-19T16:40:15.337Z,99540.66
2023-01-19T16:43:18.722Z,99539.84
2023-01-19T16:46:24.380Z,99538.03
2023-01-19T16:49:28.513Z,99542.41
2023-01-19T16:52:31.891Z,99553.06
2023-01-19T16:55:34.581Z,99549.47
2023-01-19T16:58:38.552Z,99556.50
2023-01-19T17:01:42.284Z,99524.44
2023-01-19T17:04:45.693Z,99564.44
2023-01-19T17:07:48.539Z,99570.69
2023-01-19T17:10:51.415Z,99574.22
2023-01-19T17:14:00.289Z,99566.25
2023-01-19T17:17:04.559Z,99559.16
2023-01-19T17:20:08.107Z,99559.19
2023-01-19T17:23:11.004Z,99560.03
2023-01-19T17:26:14.433Z,99555.62
2023-01-19T17:29:18.102Z,99562.62
2023-01-19T17:32:20.907Z,99575.81
2023-01-19T17:35:23.785Z,99575.84
2023-01-19T17:38:28.358Z,99576.75
2023-01-19T17:41:33.316Z,99572.34
2023-01-19T17:44:36.221Z,99575.81
2023-01-19T17:47:39.122Z,99566.06
2023-01-19T17:50:41.855Z,99563.34
2023-01-19T17:53:44.841Z,99561.56
2023-01-19T17:56:47.594Z,99572.97
2023-01-19T17:59:50.883Z,99572.84
2023-01-19T18:02:53.770Z,99566.63
2023-01-19T18:05:56.991Z,99565.63
2023-01-19T18:09:00.084Z,99566.31
2023-01-19T18:12:03.436Z,99572.38
2023-01-19T18:15:07.327Z,99570.69
2023-01-19T18:18:10.393Z,99559.03
2023-01-19T18:21:14.140Z,99575.03
2023-01-19T18:24:17.239Z,99574.03
2023-01-19T18:27:21.932Z,99567.88
2023-01-19T18:30:25.028Z,99563.38
2023-01-19T18:33:28.146Z,99556.19
2023-01-19T18:36:34.369Z,99549.91
2023-01-19T18:39:37.021Z,99555.12
2023-01-19T18:42:40.725Z,99555.91
2023-01-19T18:45:45.874Z,99549.75
2023-01-19T18:48:49.076Z,99558.47
2023-01-19T18:51:51.918Z,99570.62
2023-01-19T18:54:55.032Z,99584.50
2023-01-19T18:57:57.930Z,99605.59
2023-01-19T19:01:01.751Z,99623.06
2023-01-19T19:04:06.073Z,99637.72
2023-01-19T19:07:09.160Z,99651.63
2023-01-19T19:10:12.551Z,99647.12
2023-01-19T19:13:16.932Z,99645.53
2023-01-19T19:16:20.475Z,99640.72
2023-01-19T19:19:23.499Z,99651.16
2023-01-19T19:22:26.413Z,99657.09
2023-01-19T19:25:29.673Z,99654.38
2023-01-19T19:28:33.345Z,99663.22
2023-01-19T19:31:37.172Z,99663.09
2023-01-19T19:34:40.250Z,99672.66
2023-01-19T19:37:43.875Z,99677.28
2023-01-19T19:40:46.776Z,99676.34
2023-01-19T19:43:50.442Z,99666.81
2023-01-19T19:46:53.223Z,99668.75
2023-01-19T19:49:56.369Z,99659.91
2023-01-19T19:53:00.316Z,99664.44
2023-01-19T19:56:05.964Z,99666.25
2023-01-19T19:59:08.811Z,99664.28
2023-01-19T20:02:12.971Z,99663.50
2023-01-19T20:05:16.219Z,99655.66
2023-01-19T20:08:19.129Z,99657.41
2023-01-19T20:11:24.554Z,99661.78
2023-01-19T20:14:27.423Z,99660.72
2023-01-19T20:17:30.676Z,99661.53
2023-01-19T20:20:34.589Z,99658.84
2023-01-19T20:23:38.020Z,99655.31
2023-01-19T20:26:43.211Z,99662.38
2023-01-19T20:29:51.486Z,99671.09
2023-01-19T20:32:55.707Z,99669.22
2023-01-19T20:35:58.712Z,99669.00
2023-01-19T20:39:08.399Z,99677.06
2023-01-19T20:42:13.678Z,99679.97
2023-01-19T20:45:16.585Z,99678.44
2023-01-19T20:48:19.854Z,99678.38
2023-01-19T20:51:23.128Z,99673.91
2023-01-19T20:54:30.187Z,99678.12
2023-01-19T20:57:34.198Z,99680.91
2023-01-19T21:00:37.222Z,99686.22
2023-01-19T21:03:41.893Z,99697.75
2023-01-19T21:06:44.952Z,99694.84
2023-01-19T21:09:47.516Z,99681.44
2023-01-19T21:12:50.616Z,99692.81
2023-01-19T21:15:53.517Z,99679.16
2023-01-19T21:18:56.674Z,99677.25
2023-01-19T21:21:59.675Z,99671.91
2023-01-19T21:25:02.544Z,99680.28
2023-01-19T21:28:05.357Z,99673.91
2023-01-19T21:31:12.861Z,99678.25
2023-01-19T21:34:15.530Z,99679.72
2023-01-19T21:37:18.372Z,99672.87
2023-01-19T21:40:20.865Z,99696.66
2023-01-19T21:43:24.962Z,99700.12
2023-01-19T21:46:33.100Z,99711.53
2023-01-19T21:49:36.075Z,99700.16
2023-01-19T21:52:40.116Z,99715.06
2023-01-19T21:55:45.631Z,99722.28
2023-01-19T21:58:48.190Z,99728.22
2023-01-19T22:01:51.251Z,99735.44
2023-01-19T22:04:54.235Z,99733.59
2023-01-19T22:07:56.823Z,99749.06
2023-01-19T22:11:06.732Z,99748.94
2023-01-19T22:14:10.736Z,99739.22
2023-01-19T22:17:13.681Z,99742.84
2023-01-19T22:20:16.482Z,99755.50
2023-01-19T22:23:19.276Z,99770.19
2023-01-19T22:26:22.350Z,99768.16
2023-01-19T22:29:25.268Z,99770.75
2023-01-19T22:32:27.927Z,99754.00
2023-01-19T22:35:30.832Z,99740.81
2023-01-19T22:38:33.397Z,99746.31
2023-01-19T22:41:44.929Z,99730.56
2023-01-19T22:44:47.503Z,99742.81
2023-01-19T22:47:50.304Z,99730.41
2023-01-19T22:50:56.383Z,99729.53
2023-01-19T22:53:59.383Z,99732.09
2023-01-19T22:57:01.986Z,99747.66
2023-01-19T23:00:07.172Z,99750.25
2023-01-19T23:03:09.775Z,99751.91
2023-01-19T23:06:20.763Z,99757.00
2023-01-19T23:09:23.516Z,99766.53
2023-01-19T23:12:26.284Z,99768.16
2023-01-19T23:15:28.906Z,99761.12
2023-01-19T23:18:32.253Z,99743.69
2023-01-19T23:21:34.968Z,99741.03
2023-01-19T23:24:37.872Z,99747.91
2023-01-19T23:27:40.388Z,99755.56
2023-01-19T23:30:43.406Z,99757.06
2023-01-19T23:33:46.214Z,99761.25
2023-01-19T23:36:49.015Z,99753.28
2023-01-19T23:39:51.603Z,99741.16
2023-01-19T23:42:54.894Z,99752.06
2023-01-19T23:46:02.838Z,99742.72
2023-01-19T23:49:06.605Z,99731.16
2023-01-19T23:52:09.161Z,99734.94
2023-01-19T23:55:12.227Z,99736.81
2023-01-19T23:58:15.105Z,99764.87
